Time;durP1;ratioP1;P1;durP2;ratioP2;P2;SDS_P1;SDS_P2;PMS_P1;PMS_P2;Temp;Humidity;BMP_temperature;BMP_pressure;BME280_temperature;BME280_humidity;BME280_pressure;Samples;Min_cycle;Max_cycle;Signal;HPM_P1;HPM_P2
2020/12/09 00:02:05;;;;;;;;;;;4.20;79.60;;;;;;5021556;23;19979;-78
2020/12/09 00:04:31;;;;;;;;;;;4.20;79.70;;;;;;4993366;28;19925;-78
2020/12/09 00:06:57;;;;;;;;;;;4.20;79.70;;;;;;5012593;28;19972;-78
2020/12/09 00:09:24;;;;;;;;;;;4.20;79.80;;;;;;5012718;28;19935;-78
2020/12/09 00:11:54;;;;;;;;;;;4.20;79.90;;;;;;5001040;28;19933;-78
2020/12/09 00:14:21;;;;;;;;;;;4.20;79.90;;;;;;5009719;22;20008;-41
2020/12/09 00:16:49;;;;;;;;;;;4.20;79.90;;;;;;4989600;28;19929;-44
2020/12/09 00:19:17;;;;;;;;;;;4.20;79.90;;;;;;4990728;28;19992;-42
2020/12/09 00:21:44;;;;;;;;;;;4.20;79.90;;;;;;4981716;28;19932;-42
2020/12/09 00:24:12;;;;;;;;;;;4.20;79.90;;;;;;4988158;28;19929;-42
2020/12/09 00:26:39;;;;;;;;;;;4.20;80.00;;;;;;4991264;28;19940;-45
2020/12/09 00:29:07;;;;;;;;;;;4.20;79.90;;;;;;4987051;28;19925;-42
2020/12/09 00:31:34;;;;;;;;;;;4.20;79.90;;;;;;4990970;28;20376;-43
2020/12/09 00:34:04;;;;;;;;;;;4.30;80.00;;;;;;4992468;28;19944;-43
2020/12/09 00:36:31;;;;;;;;;;;4.20;80.00;;;;;;4997943;28;19929;-44
2020/12/09 00:38:59;;;;;;;;;;;4.20;80.00;;;;;;4994046;28;19976;-42
2020/12/09 00:41:27;;;;;;;;;;;4.20;80.00;;;;;;5002762;28;19925;-43
2020/12/09 00:43:55;;;;;;;;;;;4.20;79.90;;;;;;4996968;28;19929;-43
2020/12/09 00:46:25;;;;;;;;;;;4.20;80.00;;;;;;4995868;28;20023;-42
2020/12/09 00:48:54;;;;;;;;;;;4.30;79.90;;;;;;4984638;28;19933;-44
2020/12/09 00:51:22;;;;;;;;;;;4.30;79.90;;;;;;4988793;28;20272;-44
2020/12/09 00:53:50;;;;;;;;;;;4.30;79.90;;;;;;4992759;28;20357;-44
2020/12/09 00:56:18;;;;;;;;;;;4.30;79.90;;;;;;4993874;28;19925;-41
2020/12/09 00:58:45;;;;;;;;;;;4.30;79.90;;;;;;4990297;28;19932;-41
2020/12/09 01:01:13;;;;;;;;;;;4.30;79.90;;;;;;4988513;28;19933;-43
2020/12/09 01:03:40;;;;;;;;;;;4.30;79.90;;;;;;4987344;28;19952;-44
2020/12/09 01:06:08;;;;;;;;;;;4.30;79.90;;;;;;4989031;28;19935;-42
2020/12/09 01:08:36;;;;;;;;;;;4.30;79.90;;;;;;4988475;28;19925;-42
2020/12/09 01:11:04;;;;;;;;;;;4.30;79.90;;;;;;4993529;28;19935;-42
2020/12/09 01:13:31;;;;;;;;;;;4.30;80.00;;;;;;4994898;28;19925;-42
2020/12/09 01:15:58;;;;;;;;;;;4.30;80.10;;;;;;4990515;28;19929;-43
2020/12/09 01:18:26;;;;;;;;;;;4.30;80.10;;;;;;4990399;28;20027;-42
2020/12/09 01:20:53;;;;;;;;;;;4.30;80.20;;;;;;4995905;28;19929;-42
2020/12/09 01:23:20;;;;;;;;;;;4.40;80.30;;;;;;4998669;28;19926;-42
2020/12/09 01:25:47;;;;;;;;;;;4.40;80.30;;;;;;4994083;28;19936;-43
2020/12/09 01:28:16;;;;;;;;;;;4.40;80.30;;;;;;4996824;28;19933;-44
2020/12/09 01:30:42;;;;;;;;;;;4.40;80.30;;;;;;4992668;28;19940;-44
2020/12/09 01:33:10;;;;;;;;;;;4.40;80.30;;;;;;4989672;28;19961;-42
2020/12/09 01:35:39;;;;;;;;;;;4.40;80.40;;;;;;4993728;28;19932;-44
2020/12/09 01:38:07;;;;;;;;;;;4.40;80.40;;;;;;4990100;28;20425;-42
2020/12/09 01:40:37;;;;;;;;;;;4.40;80.50;;;;;;4976285;28;20721;-44
2020/12/09 01:43:04;;;;;;;;;;;4.40;80.50;;;;;;4994751;28;19925;-42
2020/12/09 01:45:33;;;;;;;;;;;4.50;80.60;;;;;;4995859;28;19933;-46
2020/12/09 01:48:00;;;;;;;;;;;4.50;80.50;;;;;;4997620;28;19937;-47
2020/12/09 01:50:27;;;;;;;;;;;4.50;80.50;;;;;;4987188;28;19929;-44
2020/12/09 01:52:56;;;;;;;;;;;4.50;80.50;;;;;;4986945;28;20395;-46
2020/12/09 01:55:23;;;;;;;;;;;4.50;80.50;;;;;;4988863;28;19942;-47
2020/12/09 01:57:50;;;;;;;;;;;4.50;80.50;;;;;;4994036;28;19979;-44
2020/12/09 02:00:18;;;;;;;;;;;4.50;80.50;;;;;;4996863;28;19944;-43
2020/12/09 02:02:45;;;;;;;;;;;4.60;80.50;;;;;;4990971;28;19935;-42
2020/12/09 02:05:12;;;;;;;;;;;4.60;80.50;;;;;;4995371;28;19929;-44
2020/12/09 02:07:40;;;;;;;;;;;4.60;80.40;;;;;;4994745;28;19929;-44
2020/12/09 02:10:07;;;;;;;;;;;4.60;80.30;;;;;;4983093;28;19932;-43
2020/12/09 02:12:39;;;;;;;;;;;4.60;80.30;;;;;;4989475;28;20311;-43
2020/12/09 02:15:07;;;;;;;;;;;4.60;80.30;;;;;;4992135;28;19933;-43
2020/12/09 02:17:37;;;;;;;;;;;4.60;80.20;;;;;;4981516;28;19972;-43
2020/12/09 02:20:08;;;;;;;;;;;4.60;80.20;;;;;;4986025;28;20495;-43
2020/12/09 02:22:36;;;;;;;;;;;4.60;80.20;;;;;;4984910;28;19933;-44
2020/12/09 02:25:04;;;;;;;;;;;4.60;80.20;;;;;;4983727;28;20012;-44
2020/12/09 02:27:32;;;;;;;;;;;4.60;80.30;;;;;;4997385;28;19937;-44
2020/12/09 02:29:59;;;;;;;;;;;4.60;80.30;;;;;;4988772;28;20419;-45
2020/12/09 02:32:26;;;;;;;;;;;4.60;80.40;;;;;;4985816;28;19925;-47
2020/12/09 02:34:55;;;;;;;;;;;4.60;80.40;;;;;;4988074;28;20439;-46
2020/12/09 02:37:22;;;;;;;;;;;4.60;80.60;;;;;;4985635;28;19929;-47
2020/12/09 02:39:49;;;;;;;;;;;4.60;80.60;;;;;;4981305;28;19932;-44
2020/12/09 02:42:16;;;;;;;;;;;4.60;80.60;;;;;;4993127;28;20873;-44
2020/12/09 02:44:45;;;;;;;;;;;4.60;80.60;;;;;;4996628;28;19929;-46
2020/12/09 02:47:13;;;;;;;;;;;4.70;80.60;;;;;;4987747;28;19925;-44
2020/12/09 02:49:39;;;;;;;;;;;4.70;80.60;;;;;;4994284;28;19965;-45
2020/12/09 02:52:06;;;;;;;;;;;4.70;80.60;;;;;;4997600;28;19963;-46
2020/12/09 02:54:34;;;;;;;;;;;4.70;80.60;;;;;;4985249;28;19953;-46
2020/12/09 02:57:02;;;;;;;;;;;4.70;80.60;;;;;;4983551;28;19960;-45
2020/12/09 02:59:29;;;;;;;;;;;4.70;80.40;;;;;;4984806;28;20015;-47
2020/12/09 03:01:56;;;;;;;;;;;4.70;80.40;;;;;;4975368;28;19933;-45
2020/12/09 03:04:25;;;;;;;;;;;4.70;80.40;;;;;;4979403;28;19934;-46
2020/12/09 03:06:53;;;;;;;;;;;4.70;80.30;;;;;;4977199;28;19930;-47
2020/12/09 03:09:20;;;;;;;;;;;4.70;80.20;;;;;;4976356;28;19925;-47
2020/12/09 03:11:48;;;;;;;;;;;4.70;80.20;;;;;;4981304;28;19933;-48
2020/12/09 03:14:16;;;;;;;;;;;4.70;80.20;;;;;;4982035;28;20009;-46
2020/12/09 03:16:43;;;;;;;;;;;4.70;80.10;;;;;;4977827;28;20054;-43
2020/12/09 03:19:38;;;;;;;;;;;4.70;80.00;;;;;;4974725;28;19930;-43
2020/12/09 03:22:06;;;;;;;;;;;4.70;80.00;;;;;;4991746;28;20307;-43
2020/12/09 03:24:34;;;;;;;;;;;4.70;79.90;;;;;;4983084;28;19925;-43
2020/12/09 03:27:02;;;;;;;;;;;4.70;79.90;;;;;;4990405;28;20906;-43
2020/12/09 03:29:29;;;;;;;;;;;4.70;79.80;;;;;;4991891;28;19945;-43
2020/12/09 03:31:57;;;;;;;;;;;4.70;79.80;;;;;;4984384;28;19975;-43
2020/12/09 03:34:25;;;;;;;;;;;4.70;79.90;;;;;;4989071;28;19925;-42
2020/12/09 03:36:53;;;;;;;;;;;4.70;79.80;;;;;;4996627;28;19936;-43
2020/12/09 03:39:20;;;;;;;;;;;4.70;79.80;;;;;;4984477;28;20761;-43
2020/12/09 03:41:49;;;;;;;;;;;4.70;79.80;;;;;;4985861;28;19929;-43
2020/12/09 03:44:17;;;;;;;;;;;4.70;79.80;;;;;;4990525;28;20012;-43
2020/12/09 03:46:46;;;;;;;;;;;4.70;79.80;;;;;;4987733;28;20083;-43
2020/12/09 03:49:13;;;;;;;;;;;4.70;79.90;;;;;;4989332;28;19929;-43
2020/12/09 03:51:41;;;;;;;;;;;4.70;79.90;;;;;;4983502;28;19940;-43
2020/12/09 03:54:09;;;;;;;;;;;4.70;80.00;;;;;;4990175;28;20316;-43
2020/12/09 03:56:36;;;;;;;;;;;4.70;80.00;;;;;;4991891;28;20028;-43
2020/12/09 03:59:04;;;;;;;;;;;4.70;80.00;;;;;;4984649;28;19932;-43
2020/12/09 04:01:31;;;;;;;;;;;4.70;80.00;;;;;;4982063;28;19937;-43
2020/12/09 04:03:59;;;;;;;;;;;4.70;80.00;;;;;;4987498;28;19939;-43
2020/12/09 04:06:28;;;;;;;;;;;4.70;79.90;;;;;;4991080;28;19940;-43
2020/12/09 04:08:56;;;;;;;;;;;4.70;80.00;;;;;;4991343;28;21600;-43
2020/12/09 04:11:23;;;;;;;;;;;4.70;80.20;;;;;;4995985;28;20010;-43
2020/12/09 04:13:51;;;;;;;;;;;4.70;80.20;;;;;;4987956;28;19925;-42
2020/12/09 04:16:19;;;;;;;;;;;4.70;80.10;;;;;;4982010;28;20064;-43
2020/12/09 04:18:46;;;;;;;;;;;4.70;80.20;;;;;;4990295;28;19936;-43
2020/12/09 04:21:14;;;;;;;;;;;4.70;80.10;;;;;;4986495;28;19929;-43
2020/12/09 04:23:41;;;;;;;;;;;4.70;80.10;;;;;;4985904;28;19995;-44
2020/12/09 04:26:08;;;;;;;;;;;4.70;80.10;;;;;;4988195;28;19926;-43
2020/12/09 04:28:36;;;;;;;;;;;4.70;80.10;;;;;;4988784;28;20268;-44
2020/12/09 04:31:02;;;;;;;;;;;4.70;80.10;;;;;;4993973;28;19964;-43
2020/12/09 04:33:30;;;;;;;;;;;4.70;80.10;;;;;;4996989;28;19936;-43
2020/12/09 04:35:58;;;;;;;;;;;4.70;80.10;;;;;;4999758;28;19933;-43
2020/12/09 04:38:25;;;;;;;;;;;4.70;80.10;;;;;;4990056;28;19978;-43
2020/12/09 04:40:53;;;;;;;;;;;4.60;80.00;;;;;;4979968;28;19929;-43
2020/12/09 04:43:22;;;;;;;;;;;4.60;79.80;;;;;;4994083;28;19929;-43
2020/12/09 04:45:49;;;;;;;;;;;4.60;79.80;;;;;;4989745;28;20008;-43
2020/12/09 04:48:16;;;;;;;;;;;4.60;79.80;;;;;;4985491;28;19957;-43
2020/12/09 04:50:47;;;;;;;;;;;4.60;79.80;;;;;;4989077;28;20285;-43
2020/12/09 04:53:23;;;;;;;;;;;4.60;79.70;;;;;;4999099;28;19932;-43
2020/12/09 04:55:52;;;;;;;;;;;4.60;79.70;;;;;;4998641;28;20365;-43
2020/12/09 04:58:44;;;;;;;;;;;4.60;79.70;;;;;;4993333;28;20389;-43
2020/12/09 05:01:14;;;;;;;;;;;4.60;79.70;;;;;;4983315;28;19980;-45
2020/12/09 05:03:42;;;;;;;;;;;4.50;79.70;;;;;;4993559;28;19932;-46
2020/12/09 05:06:10;;;;;;;;;;;4.50;79.70;;;;;;4978759;28;19972;-46
2020/12/09 05:08:39;;;;;;;;;;;4.50;80.00;;;;;;4996885;28;19930;-43
2020/12/09 05:11:07;;;;;;;;;;;4.50;80.00;;;;;;4990653;28;19928;-45
2020/12/09 05:13:36;;;;;;;;;;;4.50;80.00;;;;;;4989334;28;19926;-44
2020/12/09 05:16:03;;;;;;;;;;;4.50;80.00;;;;;;4992370;28;19972;-44
2020/12/09 05:18:38;;;;;;;;;;;4.50;80.00;;;;;;4990592;28;19930;-43
2020/12/09 05:21:19;;;;;;;;;;;4.50;80.10;;;;;;4982584;28;19969;-44
2020/12/09 05:23:53;;;;;;;;;;;4.50;80.20;;;;;;4982448;28;19929;-44
2020/12/09 05:26:22;;;;;;;;;;;4.50;80.20;;;;;;4985129;28;19963;-44
2020/12/09 05:29:03;;;;;;;;;;;4.50;80.20;;;;;;4983722;28;19929;-44
2020/12/09 05:31:34;;;;;;;;;;;4.50;80.20;;;;;;4985232;28;20327;-44
2020/12/09 05:34:02;;;;;;;;;;;4.50;80.30;;;;;;4987979;28;19976;-44
2020/12/09 05:36:44;;;;;;;;;;;4.50;80.30;;;;;;4985700;28;19931;-43
2020/12/09 05:39:12;;;;;;;;;;;4.50;80.40;;;;;;4992253;28;19930;-44
2020/12/09 05:41:40;;;;;;;;;;;4.40;80.40;;;;;;4983552;28;19925;-44
2020/12/09 05:44:07;;;;;;;;;;;4.40;80.50;;;;;;5008362;28;19925;-44
2020/12/09 05:46:52;;;;;;;;;;;4.40;80.60;;;;;;4991503;28;20466;-44
2020/12/09 05:49:21;;;;;;;;;;;4.40;80.70;;;;;;4979332;28;20312;-42
2020/12/09 05:52:21;;;;;;;;;;;4.40;80.60;;;;;;4996167;28;19929;-44
2020/12/09 05:54:50;;;;;;;;;;;4.50;80.60;;;;;;4968681;28;19944;-44
2020/12/09 05:57:19;;;;;;;;;;;4.50;80.50;;;;;;4992220;28;20411;-43
2020/12/09 05:59:47;;;;;;;;;;;4.50;80.40;;;;;;4996137;28;19933;-43
2020/12/09 06:02:22;;;;;;;;;;;4.50;80.40;;;;;;4983800;28;19936;-43
2020/12/09 06:04:51;;;;;;;;;;;4.40;80.30;;;;;;4989525;28;20395;-43
2020/12/09 06:07:19;;;;;;;;;;;4.40;80.30;;;;;;4985341;28;19933;-43
2020/12/09 06:10:02;;;;;;;;;;;4.40;80.30;;;;;;4990903;28;19936;-43
2020/12/09 06:12:29;;;;;;;;;;;4.40;80.40;;;;;;4984424;28;20360;-43
2020/12/09 06:15:12;;;;;;;;;;;4.40;80.40;;;;;;4994202;28;19929;-43
2020/12/09 06:17:39;;;;;;;;;;;4.40;80.40;;;;;;4998392;28;19936;-43
2020/12/09 06:20:06;;;;;;;;;;;4.40;80.30;;;;;;4997052;28;19947;-43
2020/12/09 06:22:34;;;;;;;;;;;4.50;80.10;;;;;;4992695;28;19932;-44
2020/12/09 06:25:08;;;;;;;;;;;4.40;79.90;;;;;;4997360;28;19933;-43
2020/12/09 06:27:37;;;;;;;;;;;4.40;79.90;;;;;;4997037;28;19936;-44
2020/12/09 06:30:06;;;;;;;;;;;4.40;79.80;;;;;;4997335;28;19932;-43
2020/12/09 06:32:46;;;;;;;;;;;4.40;79.70;;;;;;4986673;28;19925;-42
2020/12/09 06:35:17;;;;;;;;;;;4.40;79.50;;;;;;4990610;28;19975;-43
2020/12/09 06:38:03;;;;;;;;;;;4.40;79.40;;;;;;4980654;28;19933;-43
2020/12/09 06:40:30;;;;;;;;;;;4.40;79.30;;;;;;4987713;28;19964;-43
2020/12/09 06:43:07;;;;;;;;;;;4.30;79.30;;;;;;4993371;28;19956;-43
2020/12/09 06:45:42;;;;;;;;;;;4.30;79.20;;;;;;4994001;28;20019;-43
2020/12/09 06:48:09;;;;;;;;;;;4.20;79.10;;;;;;4999110;28;19933;-43
2020/12/09 06:50:37;;;;;;;;;;;4.20;79.00;;;;;;5000260;28;19937;-43
2020/12/09 06:53:13;;;;;;;;;;;4.20;79.00;;;;;;4995413;28;20361;-43
2020/12/09 06:55:42;;;;;;;;;;;4.20;79.00;;;;;;4987160;28;19994;-43
2020/12/09 06:58:25;;;;;;;;;;;4.20;79.00;;;;;;4999100;28;20399;-43
2020/12/09 07:01:06;;;;;;;;;;;4.20;79.00;;;;;;4990465;28;19925;-44
2020/12/09 07:03:37;;;;;;;;;;;4.10;78.90;;;;;;4991103;28;19937;-44
2020/12/09 07:06:17;;;;;;;;;;;4.10;78.90;;;;;;4981916;28;19933;-44
2020/12/09 07:08:49;;;;;;;;;;;4.10;79.00;;;;;;4992601;28;19933;-47
2020/12/09 07:11:17;;;;;;;;;;;4.00;79.00;;;;;;4974995;28;19940;-43
2020/12/09 07:13:46;;;;;;;;;;;4.00;79.00;;;;;;4984816;28;19929;-43
2020/12/09 07:16:14;;;;;;;;;;;4.00;79.20;;;;;;4992625;28;19926;-43
2020/12/09 07:18:41;;;;;;;;;;;4.00;79.40;;;;;;4991009;28;19980;-43
2020/12/09 07:21:08;;;;;;;;;;;4.00;79.40;;;;;;4982180;28;20304;-45
2020/12/09 07:23:36;;;;;;;;;;;4.00;79.40;;;;;;4991879;28;20269;-43
2020/12/09 07:26:04;;;;;;;;;;;3.90;79.50;;;;;;4992899;28;19929;-44
2020/12/09 07:28:32;;;;;;;;;;;3.90;79.50;;;;;;4983885;28;19925;-44
2020/12/09 07:31:06;;;;;;;;;;;3.90;79.40;;;;;;4994893;28;19929;-46
2020/12/09 07:33:33;;;;;;;;;;;3.90;79.40;;;;;;4993718;28;19964;-46
2020/12/09 07:36:02;;;;;;;;;;;3.90;79.60;;;;;;4988987;28;19933;-46
2020/12/09 07:38:30;;;;;;;;;;;3.90;79.70;;;;;;5014204;28;20007;-45
2020/12/09 07:41:01;;;;;;;;;;;3.90;79.80;;;;;;4975110;28;19960;-47
2020/12/09 07:43:28;;;;;;;;;;;3.90;79.90;;;;;;4985033;28;19943;-47
2020/12/09 07:46:02;;;;;;;;;;;3.80;79.90;;;;;;4982793;28;20392;-45
2020/12/09 07:48:33;;;;;;;;;;;3.80;80.20;;;;;;4989420;28;20272;-47
2020/12/09 07:51:01;;;;;;;;;;;3.80;80.30;;;;;;4982010;28;19979;-45
2020/12/09 07:53:28;;;;;;;;;;;3.80;80.40;;;;;;4984215;28;19939;-43
2020/12/09 07:55:58;;;;;;;;;;;3.80;80.40;;;;;;4991557;28;20016;-43
2020/12/09 07:58:26;;;;;;;;;;;3.80;80.40;;;;;;4986694;28;19939;-48
2020/12/09 08:00:55;;;;;;;;;;;3.80;80.50;;;;;;4970772;28;19934;-49
2020/12/09 08:03:26;;;;;;;;;;;3.90;80.40;;;;;;4986802;28;19929;-47
2020/12/09 08:05:55;;;;;;;;;;;3.90;80.30;;;;;;4982033;28;19925;-47
2020/12/09 08:08:25;;;;;;;;;;;3.90;80.30;;;;;;4988404;28;19925;-47
2020/12/09 08:11:04;;;;;;;;;;;3.90;80.30;;;;;;4990517;28;19929;-46
2020/12/09 08:13:31;;;;;;;;;;;3.90;80.30;;;;;;5000661;28;19932;-44
2020/12/09 08:16:02;;;;;;;;;;;3.90;80.30;;;;;;4980512;28;19991;-44
2020/12/09 08:18:29;;;;;;;;;;;4.00;80.40;;;;;;4982441;28;20288;-43
2020/12/09 08:20:56;;;;;;;;;;;4.00;80.60;;;;;;4985699;28;20391;-44
2020/12/09 08:23:37;;;;;;;;;;;4.00;80.80;;;;;;4989458;28;19934;-43
2020/12/09 08:26:04;;;;;;;;;;;4.10;80.90;;;;;;4984376;28;20627;-43
2020/12/09 08:28:33;;;;;;;;;;;4.10;81.10;;;;;;4983121;28;19963;-43
2020/12/09 08:31:03;;;;;;;;;;;4.20;81.10;;;;;;4981229;28;20394;-45
2020/12/09 08:33:30;;;;;;;;;;;4.20;81.20;;;;;;4989195;28;19925;-43
2020/12/09 08:36:07;;;;;;;;;;;4.20;81.30;;;;;;4988705;28;20408;-44
2020/12/09 08:38:45;;;;;;;;;;;4.30;81.30;;;;;;4982849;28;19955;-46
2020/12/09 08:41:30;;;;;;;;;;;4.30;81.40;;;;;;4991377;28;19925;-47
2020/12/09 08:44:04;;;;;;;;;;;4.40;81.40;;;;;;4986906;28;19941;-45
2020/12/09 08:46:34;;;;;;;;;;;4.40;81.50;;;;;;4986205;28;19956;-47
2020/12/09 08:49:04;;;;;;;;;;;4.40;81.40;;;;;;4987372;28;19933;-47
2020/12/09 08:51:32;;;;;;;;;;;4.50;81.50;;;;;;4988979;28;20373;-46
2020/12/09 08:54:01;;;;;;;;;;;4.50;81.40;;;;;;4983354;28;19945;-43
2020/12/09 08:56:29;;;;;;;;;;;4.50;81.40;;;;;;4982666;28;20000;-46
2020/12/09 08:58:57;;;;;;;;;;;4.60;81.40;;;;;;4989162;28;19979;-42
2020/12/09 09:01:27;;;;;;;;;;;4.60;81.40;;;;;;4987212;28;20028;-45
2020/12/09 09:04:06;;;;;;;;;;;4.60;81.50;;;;;;4982761;28;19933;-42
2020/12/09 09:06:33;;;;;;;;;;;4.70;81.40;;;;;;4983332;28;19980;-45
2020/12/09 09:09:05;;;;;;;;;;;4.70;81.30;;;;;;4985351;28;20056;-43
2020/12/09 09:11:33;;;;;;;;;;;4.80;81.20;;;;;;4986998;28;20374;-44
2020/12/09 09:14:01;;;;;;;;;;;4.80;81.20;;;;;;4990899;28;19925;-43
2020/12/09 09:16:28;;;;;;;;;;;4.80;81.00;;;;;;4991089;28;19929;-43
2020/12/09 09:18:56;;;;;;;;;;;4.90;80.90;;;;;;4992499;28;19933;-44
2020/12/09 09:21:24;;;;;;;;;;;4.90;80.80;;;;;;4986868;28;19929;-43
2020/12/09 09:23:52;;;;;;;;;;;4.90;80.60;;;;;;4992782;28;20026;-43
2020/12/09 09:26:20;;;;;;;;;;;4.90;80.70;;;;;;4981516;28;20269;-44
2020/12/09 09:28:48;;;;;;;;;;;5.00;80.50;;;;;;4991146;28;20014;-44
2020/12/09 09:31:14;;;;;;;;;;;5.00;80.30;;;;;;5004791;28;20319;-43
2020/12/09 09:33:42;;;;;;;;;;;5.00;80.30;;;;;;4987036;28;19925;-44
2020/12/09 09:36:09;;;;;;;;;;;5.10;80.30;;;;;;4985658;28;19933;-44
2020/12/09 09:38:37;;;;;;;;;;;5.10;80.20;;;;;;4989814;28;19933;-43
2020/12/09 09:41:05;;;;;;;;;;;5.10;80.00;;;;;;4979427;28;19933;-43
2020/12/09 09:43:32;;;;;;;;;;;5.10;79.80;;;;;;4979711;28;19936;-43
2020/12/09 09:46:01;;;;;;;;;;;5.20;79.70;;;;;;4980931;28;20351;-43
2020/12/09 09:48:28;;;;;;;;;;;5.20;79.60;;;;;;4988206;28;19937;-44
2020/12/09 09:50:55;;;;;;;;;;;5.20;79.50;;;;;;4978421;28;19973;-44
2020/12/09 09:53:21;;;;;;;;;;;5.20;79.50;;;;;;4989330;28;19976;-43
2020/12/09 09:55:48;;;;;;;;;;;5.30;79.30;;;;;;4980642;28;20413;-44
2020/12/09 09:58:16;;;;;;;;;;;5.30;79.20;;;;;;4985483;28;19936;-43
2020/12/09 10:00:43;;;;;;;;;;;5.30;79.20;;;;;;4990406;28;19935;-43
2020/12/09 10:03:11;;;;;;;;;;;5.30;79.00;;;;;;4992112;28;20025;-44
2020/12/09 10:05:39;;;;;;;;;;;5.30;79.10;;;;;;4982181;28;19928;-42
2020/12/09 10:08:11;;;;;;;;;;;5.40;79.00;;;;;;4975455;28;19925;-44
2020/12/09 10:10:38;;;;;;;;;;;5.40;79.00;;;;;;4980848;28;19956;-45
2020/12/09 10:13:06;;;;;;;;;;;5.30;79.10;;;;;;4981959;28;19939;-44
2020/12/09 10:15:37;;;;;;;;;;;5.40;79.10;;;;;;4981329;28;19926;-46
2020/12/09 10:18:04;;;;;;;;;;;5.40;79.10;;;;;;4982145;28;19928;-44
2020/12/09 10:20:32;;;;;;;;;;;5.40;79.10;;;;;;4972530;28;20408;-43
2020/12/09 10:22:59;;;;;;;;;;;5.40;79.00;;;;;;4978741;28;19929;-48
2020/12/09 10:25:29;;;;;;;;;;;5.40;78.90;;;;;;4980898;28;20311;-46
2020/12/09 10:27:56;;;;;;;;;;;5.50;79.00;;;;;;4984042;28;19929;-48
2020/12/09 10:30:23;;;;;;;;;;;5.40;78.90;;;;;;4982936;28;20369;-47
2020/12/09 10:32:50;;;;;;;;;;;5.50;79.00;;;;;;4981702;28;20296;-45
2020/12/09 10:35:17;;;;;;;;;;;5.50;78.80;;;;;;4982471;28;19999;-47
2020/12/09 10:37:44;;;;;;;;;;;5.50;78.70;;;;;;4981319;28;19933;-47
2020/12/09 10:40:11;;;;;;;;;;;5.50;78.70;;;;;;4987039;28;19940;-45
2020/12/09 10:42:39;;;;;;;;;;;5.60;78.50;;;;;;4983345;28;19929;-42
2020/12/09 10:45:08;;;;;;;;;;;5.60;78.50;;;;;;4985863;28;19925;-46
2020/12/09 10:47:36;;;;;;;;;;;5.70;78.30;;;;;;4989692;28;19960;-45
2020/12/09 10:50:04;;;;;;;;;;;5.70;78.20;;;;;;4977236;28;20293;-46
2020/12/09 10:52:32;;;;;;;;;;;5.70;78.30;;;;;;4992884;28;19930;-46
2020/12/09 10:55:00;;;;;;;;;;;5.70;78.10;;;;;;4994152;28;19930;-43
2020/12/09 10:57:27;;;;;;;;;;;5.70;78.00;;;;;;4990737;28;19932;-47
2020/12/09 10:59:54;;;;;;;;;;;5.80;78.10;;;;;;4995428;28;19926;-46
2020/12/09 11:02:22;;;;;;;;;;;5.80;77.80;;;;;;4984848;28;19926;-45
2020/12/09 11:04:49;;;;;;;;;;;5.80;77.80;;;;;;4982207;28;19940;-46
2020/12/09 11:07:16;;;;;;;;;;;5.80;77.60;;;;;;4986920;28;19936;-44
2020/12/09 11:09:44;;;;;;;;;;;5.80;77.40;;;;;;4977846;28;20392;-45
2020/12/09 11:12:11;;;;;;;;;;;5.80;77.20;;;;;;4984252;28;20641;-46
2020/12/09 11:14:38;;;;;;;;;;;5.80;77.20;;;;;;4979506;28;19929;-48
2020/12/09 11:17:05;;;;;;;;;;;5.80;77.00;;;;;;4981287;28;19933;-47
2020/12/09 11:19:33;;;;;;;;;;;5.80;76.80;;;;;;4978610;28;20380;-43
2020/12/09 11:22:04;;;;;;;;;;;5.80;76.70;;;;;;4984914;28;19992;-45
2020/12/09 11:24:31;;;;;;;;;;;5.80;76.70;;;;;;4985424;28;20400;-48
2020/12/09 11:27:04;;;;;;;;;;;5.80;76.70;;;;;;4986487;28;20340;-46
2020/12/09 11:29:31;;;;;;;;;;;5.80;76.60;;;;;;4986597;28;20015;-44
2020/12/09 11:31:59;;;;;;;;;;;5.80;76.60;;;;;;4989250;28;20026;-46
2020/12/09 11:34:27;;;;;;;;;;;5.70;76.70;;;;;;4993068;28;19932;-47
2020/12/09 11:36:58;;;;;;;;;;;5.70;76.80;;;;;;4988210;28;19976;-43
2020/12/09 11:39:27;;;;;;;;;;;5.70;76.70;;;;;;4988708;28;20020;-48
2020/12/09 11:42:03;;;;;;;;;;;5.70;76.70;;;;;;4991898;28;20023;-44
2020/12/09 11:44:30;;;;;;;;;;;5.70;76.70;;;;;;4994799;28;20930;-44
2020/12/09 11:47:02;;;;;;;;;;;5.70;76.70;;;;;;4996625;28;19936;-43
2020/12/09 11:49:29;;;;;;;;;;;5.70;76.60;;;;;;4993870;28;19987;-43
2020/12/09 11:51:57;;;;;;;;;;;5.60;76.80;;;;;;4991239;28;19936;-43
2020/12/09 11:54:24;;;;;;;;;;;5.60;76.80;;;;;;4976988;28;19926;-44
2020/12/09 11:56:52;;;;;;;;;;;5.70;76.70;;;;;;4996161;28;19929;-43
2020/12/09 11:59:20;;;;;;;;;;;5.60;76.70;;;;;;4982847;28;20276;-43
2020/12/09 12:01:47;;;;;;;;;;;5.60;76.90;;;;;;4988282;28;20011;-44
2020/12/09 12:04:15;;;;;;;;;;;5.60;77.00;;;;;;4982502;28;19929;-46
2020/12/09 12:06:43;;;;;;;;;;;5.60;77.00;;;;;;4993005;28;20016;-44
2020/12/09 12:09:10;;;;;;;;;;;5.60;76.70;;;;;;4988360;28;20007;-46
2020/12/09 12:11:39;;;;;;;;;;;5.60;76.60;;;;;;4976440;28;19932;-46
2020/12/09 12:14:06;;;;;;;;;;;5.70;76.50;;;;;;4994520;28;20432;-44
2020/12/09 12:16:34;;;;;;;;;;;5.70;76.50;;;;;;4983926;28;19925;-46
2020/12/09 12:19:02;;;;;;;;;;;5.70;76.50;;;;;;4990797;28;20572;-46
2020/12/09 12:21:30;;;;;;;;;;;5.70;76.40;;;;;;4987940;28;20075;-46
2020/12/09 12:23:57;;;;;;;;;;;5.70;76.50;;;;;;4978890;28;20658;-46
2020/12/09 12:26:25;;;;;;;;;;;5.60;76.50;;;;;;4979524;28;19931;-45
2020/12/09 12:28:52;;;;;;;;;;;5.60;76.40;;;;;;4981949;28;19991;-44
2020/12/09 12:31:20;;;;;;;;;;;5.60;76.40;;;;;;4993475;28;19933;-45
2020/12/09 12:33:52;;;;;;;;;;;5.60;76.60;;;;;;5001334;28;20131;-46
2020/12/09 12:36:20;;;;;;;;;;;5.60;76.40;;;;;;4989702;28;19968;-47
2020/12/09 12:38:47;;;;;;;;;;;5.60;76.50;;;;;;5003712;28;19929;-46
2020/12/09 12:41:15;;;;;;;;;;;5.60;76.40;;;;;;5002587;28;20018;-44
2020/12/09 12:43:42;;;;;;;;;;;5.60;76.30;;;;;;4991250;28;19932;-44
2020/12/09 12:46:09;;;;;;;;;;;5.70;76.30;;;;;;5000095;28;19925;-47
2020/12/09 12:48:36;;;;;;;;;;;5.70;76.20;;;;;;5000032;28;20020;-45
2020/12/09 12:51:03;;;;;;;;;;;5.70;76.20;;;;;;4997802;28;19945;-45
2020/12/09 12:53:30;;;;;;;;;;;5.70;76.10;;;;;;4996692;28;20003;-47
2020/12/09 12:56:00;;;;;;;;;;;5.70;76.10;;;;;;4995344;28;19948;-46
2020/12/09 12:58:30;;;;;;;;;;;5.70;76.00;;;;;;4994809;28;19933;-43
2020/12/09 13:00:57;;;;;;;;;;;5.70;75.80;;;;;;4991232;28;19932;-45
2020/12/09 13:03:24;;;;;;;;;;;5.70;75.80;;;;;;4996825;28;19930;-47
2020/12/09 13:05:51;;;;;;;;;;;5.70;75.80;;;;;;5002601;28;19929;-45
2020/12/09 13:08:19;;;;;;;;;;;5.70;75.80;;;;;;5000107;28;19925;-43
2020/12/09 13:10:46;;;;;;;;;;;5.70;75.90;;;;;;4986543;28;20384;-42
2020/12/09 13:13:13;;;;;;;;;;;5.70;76.00;;;;;;4996604;28;19925;-47
2020/12/09 13:15:42;;;;;;;;;;;5.60;76.00;;;;;;4996153;28;20799;-43
2020/12/09 13:18:10;;;;;;;;;;;5.60;75.80;;;;;;4998040;28;19929;-46
2020/12/09 13:20:36;;;;;;;;;;;5.50;76.00;;;;;;4995716;28;19976;-47
2020/12/09 13:23:03;;;;;;;;;;;5.50;76.30;;;;;;4999454;28;19937;-44
2020/12/09 13:25:29;;;;;;;;;;;5.50;76.10;;;;;;4996902;28;19936;-47
2020/12/09 13:27:56;;;;;;;;;;;5.50;75.90;;;;;;4995688;28;20458;-45
2020/12/09 13:30:23;;;;;;;;;;;5.60;75.90;;;;;;5000296;28;19940;-45
2020/12/09 13:32:50;;;;;;;;;;;5.60;75.90;;;;;;4999578;28;20074;-44
2020/12/09 13:35:17;;;;;;;;;;;5.60;75.90;;;;;;5000573;28;20404;-46
2020/12/09 13:37:44;;;;;;;;;;;5.60;75.80;;;;;;4996874;28;19925;-44
2020/12/09 13:40:11;;;;;;;;;;;5.60;75.60;;;;;;4994832;28;19929;-47
2020/12/09 13:42:38;;;;;;;;;;;5.70;75.60;;;;;;4992252;28;19926;-46
2020/12/09 13:45:05;;;;;;;;;;;5.70;75.50;;;;;;5001660;28;19925;-47
2020/12/09 13:47:34;;;;;;;;;;;5.70;75.50;;;;;;4998168;28;19933;-47
2020/12/09 13:50:04;;;;;;;;;;;5.70;75.50;;;;;;4991910;28;19952;-44
2020/12/09 13:52:35;;;;;;;;;;;5.60;75.50;;;;;;4995862;28;19956;-44
2020/12/09 13:55:03;;;;;;;;;;;5.60;75.40;;;;;;4996118;28;19929;-45
2020/12/09 13:57:31;;;;;;;;;;;5.60;75.50;;;;;;4996161;28;19935;-45
2020/12/09 13:59:58;;;;;;;;;;;5.60;75.50;;;;;;4994999;28;19960;-46
2020/12/09 14:02:25;;;;;;;;;;;5.60;75.40;;;;;;4988841;28;19929;-44
2020/12/09 14:05:00;;;;;;;;;;;5.60;75.30;;;;;;5009035;28;19955;-46
2020/12/09 14:07:26;;;;;;;;;;;5.60;75.30;;;;;;4991309;28;20374;-45
2020/12/09 14:09:54;;;;;;;;;;;5.70;75.40;;;;;;4995001;28;20437;-44
2020/12/09 14:12:21;;;;;;;;;;;5.70;75.40;;;;;;4996070;28;19925;-47
2020/12/09 14:14:47;;;;;;;;;;;5.70;75.40;;;;;;5000284;28;20373;-47
2020/12/09 14:17:14;;;;;;;;;;;5.70;75.20;;;;;;4999066;28;19933;-43
2020/12/09 14:19:43;;;;;;;;;;;5.70;75.30;;;;;;4988735;28;19933;-44
2020/12/09 14:22:11;;;;;;;;;;;5.70;75.20;;;;;;4993435;28;20068;-43
2020/12/09 14:24:38;;;;;;;;;;;5.70;75.20;;;;;;4993047;28;20015;-43
2020/12/09 14:27:26;;;;;;;;;;;5.70;75.20;;;;;;4993935;28;19932;-45
2020/12/09 14:29:53;;;;;;;;;;;5.70;75.20;;;;;;4995676;28;19933;-43
2020/12/09 14:32:21;;;;;;;;;;;5.70;75.10;;;;;;4991434;28;19984;-46
2020/12/09 14:34:53;;;;;;;;;;;5.70;75.20;;;;;;4999407;28;19932;-47
2020/12/09 14:37:20;;;;;;;;;;;5.80;75.20;;;;;;4998811;28;19940;-45
2020/12/09 14:39:55;;;;;;;;;;;5.80;75.10;;;;;;4998985;28;20380;-46
2020/12/09 14:42:21;;;;;;;;;;;5.80;74.80;;;;;;4997322;28;19925;-45